Independence of the Seas — C6WW4 — position and weather

sailwx.info

Track history (hours):
 
Tides and Currents Weather Stations Pressure Air Temp Water Temp Dewpoint Dewpoint Depression Visibility Wind Speed Wind Dir Waves Ship Positions

Independence of the Seas

Last reported at 2017-Jun-23 16:59 UTC. Time now 2017-Jun-23 17:10 UTC.
Position N 28°08' W 015°26'.

Length 339 m; draft 8.8 m.

Type: Passenger vessel. MMSI: 309374000.

Date/timePositionNaut miles runAvg speedWind from/ knotsBaromVisibWave heightAir tempDewpointWater temp
2017-Jun-23 16:59N 28°08' W 015°26'0 0.0
2017-Jun-23 16:29N 28°08' W 015°26'0 0.0
2017-Jun-23 15:59N 28°08' W 015°26'0 0.0
2017-Jun-23 15:29N 28°08' W 015°26'0 0.0
2017-Jun-23 14:50N 28°08' W 015°26'0 0.0
2017-Jun-23 13:50N 28°08' W 015°26'0 0.0
2017-Jun-23 13:23N 28°08' W 015°26'0 0.0
2017-Jun-23 12:53N 28°08' W 015°26'0 0.0
2017-Jun-23 12:23N 28°08' W 015°26'0 0.0
2017-Jun-23 11:50N 28°08' W 015°26'0 0.0
2017-Jun-23 11:23N 28°08' W 015°26'0 0.0
2017-Jun-23 10:50N 28°08' W 015°26'0 0.0
2017-Jun-23 10:26N 28°08' W 015°26'0 0.0
2017-Jun-23 09:56N 28°08' W 015°26'0 0.0
2017-Jun-23 09:26N 28°08' W 015°26'0 0.0
2017-Jun-23 08:56N 28°08' W 015°26'0 0.0
2017-Jun-23 08:26N 28°08' W 015°26'0 0.0
2017-Jun-23 07:53N 28°08' W 015°26'1 2.6
2017-Jun-23 07:30N 28°08' W 015°25'5 9.7
2017-Jun-23 07:00N 28°06' W 015°20'611.4
2017-Jun-23 06:30N 28°05' W 015°13'611.5
2017-Jun-23 06:00N 28°04' W 015°07'611.7
2017-Jun-23 05:30N 28°03' W 015°01'611.4
2017-Jun-23 05:01N 28°02' W 014°54'611.2
2017-Jun-23 04:30N 27°59' W 014°49'611.2
2017-Jun-23 04:01N 27°57' W 014°43'611.4
2017-Jun-23 03:30N 27°54' W 014°37'611.4
2017-Jun-23 03:00N 27°52' W 014°31'611.2
2017-Jun-23 02:30N 27°49' W 014°26'611.4
2017-Jun-23 02:00N 27°47' W 014°19'611.5
2017-Jun-23 01:30N 27°49' W 014°13'611.3
2017-Jun-23 01:00N 27°50' W 014°07'611.4
2017-Jun-23 00:30N 27°52' W 014°01'611.4
2017-Jun-23 00:00N 27°53' W 013°55'611.5
2017-Jun-22 23:31N 27°56' W 013°49'611.2
2017-Jun-22 23:00N 27°60' W 013°44'3811.4
2017-Jun-22 19:40N 28°36' W 013°32'411.7
2017-Jun-22 19:22N 28°40' W 013°32'411.6
2017-Jun-22 19:01N 28°44' W 013°32'711.5
2017-Jun-22 18:24N 28°51' W 013°32'511.6
2017-Jun-22 18:00N 28°56' W 013°32'2 3.5
2017-Jun-22 17:22N 28°58' W 013°32'0 0.0
2017-Jun-22 16:55N 28°58' W 013°32'0 0.0
2017-Jun-22 16:19N 28°58' W 013°32'0 0.0
2017-Jun-22 15:49N 28°58' W 013°32'0 0.0
2017-Jun-22 15:19N 28°58' W 013°32'0 0.0
2017-Jun-22 14:55N 28°58' W 013°32'0 0.0
2017-Jun-22 13:55N 28°58' W 013°32'0 0.0
2017-Jun-22 13:28N 28°58' W 013°32'0 0.0
2017-Jun-22 12:55N 28°58' W 013°32'0 0.0
2017-Jun-22 12:25N 28°58' W 013°32'0 0.0
2017-Jun-22 11:58N 28°58' W 013°32'0 0.0
2017-Jun-22 11:28N 28°58' W 013°32'0 0.0
2017-Jun-22 10:58N 28°58' W 013°32'0 0.0
2017-Jun-22 10:25N 28°58' W 013°32'0 0.0
2017-Jun-22 09:58N 28°58' W 013°32'0 0.0
2017-Jun-22 09:28N 28°58' W 013°32'0 0.0
2017-Jun-22 08:58N 28°58' W 013°32'0 0.0
2017-Jun-22 08:16N 28°58' W 013°32'0 0.0
2017-Jun-22 07:49N 28°58' W 013°32'0 0.6
2017-Jun-22 07:30N 28°58' W 013°32'4 8.4
2017-Jun-22 07:00N 28°59' W 013°28'815.1
2017-Jun-22 06:30N 29°06' W 013°24'1914.9
2017-Jun-22 05:15N 29°23' W 013°15'514.6
2017-Jun-22 04:53N 29°28' W 013°13'614.6
2017-Jun-22 04:30N 29°34' W 013°11'714.7
2017-Jun-22 04:00N 29°41' W 013°09'915.0
2017-Jun-22 03:24N 29°49' W 013°05'615.3
2017-Jun-22 03:00N 29°55' W 013°03'814.9
2017-Jun-22 02:28N 30°02' W 012°59'715.6
2017-Jun-22 02:00N 30°09' W 012°57'815.6
2017-Jun-22 01:30N 30°17' W 012°54'815.3
2017-Jun-22 01:00N 30°24' W 012°51'50716.7
2017-Jun-20 18:38N 38°23' W 009°31'217.3
2017-Jun-20 18:30N 38°25' W 009°30'916.9
2017-Jun-20 18:00N 38°33' W 009°26'917.0
2017-Jun-20 17:30N 38°40' W 009°19'713.7
2017-Jun-20 17:00N 38°41' W 009°11'3 5.2
2017-Jun-20 16:28N 38°43' W 009°07'0 0.0
2017-Jun-20 15:58N 38°43' W 009°07'0 0.0
2017-Jun-20 15:28N 38°43' W 009°07'0 0.0
2017-Jun-20 14:58N 38°43' W 009°07'0 0.0
2017-Jun-20 13:58N 38°43' W 009°07'0 0.0
2017-Jun-20 13:28N 38°43' W 009°07'0 0.0
2017-Jun-20 12:58N 38°43' W 009°07'0 0.0
2017-Jun-20 12:28N 38°43' W 009°07'0 0.0
2017-Jun-20 11:58N 38°43' W 009°07'0 0.0
2017-Jun-20 11:28N 38°43' W 009°07'0 0.0
2017-Jun-20 10:55N 38°43' W 009°07'0 0.0
2017-Jun-20 10:28N 38°43' W 009°07'0 0.0
2017-Jun-20 09:58N 38°43' W 009°07'0 0.0
2017-Jun-20 09:28N 38°43' W 009°07'0 0.0
2017-Jun-20 08:58N 38°43' W 009°07'0 0.0
2017-Jun-20 08:28N 38°43' W 009°07'0 0.0
2017-Jun-20 07:58N 38°43' W 009°07'0 0.0
2017-Jun-20 07:28N 38°43' W 009°07'0 0.0
2017-Jun-20 07:00N 38°43' W 009°07'3 6.4
2017-Jun-20 06:30N 38°41' W 009°11'612.8
2017-Jun-20 06:01N 38°40' W 009°19'714.8
2017-Jun-20 05:30N 38°35' W 009°27'816.4
2017-Jun-20 05:01N 38°37' W 009°37'815.8
2017-Jun-20 04:30N 38°44' W 009°43'917.8
2017-Jun-20 04:00N 38°53' W 009°44'918.1
2017-Jun-20 03:30N 39°02' W 009°44'918.1
2017-Jun-20 03:00N 39°11' W 009°44'1017.7
2017-Jun-20 02:28N 39°20' W 009°44'817.0
2017-Jun-20 02:00N 39°28' W 009°45'816.7
2017-Jun-20 01:30N 39°37' W 009°45'171 8.7
2017-Jun-19 05:54N 42°25' W 009°10'4916.7
2017-Jun-19 02:58N 42°55' W 010°03'40119.0
2017-Jun-18 05:50N 48°53' W 005°47'820.6
2017-Jun-18 05:26N 48°57' W 005°36'920.9
2017-Jun-18 05:01N 49°02' W 005°24'1120.7
2017-Jun-18 04:30N 49°08' W 005°11'919.3
2017-Jun-18 04:01N 49°12' W 004°58'918.9
2017-Jun-18 03:31N 49°17' W 004°46'2618.7
2017-Jun-18 02:08N 49°31' W 004°12'318.3
2017-Jun-18 02:00N 49°32' W 004°09'918.2
2017-Jun-18 01:30N 49°36' W 003°57'918.0
2017-Jun-18 00:59N 49°41' W 003°45'1217.5
2017-Jun-18 00:16N 49°48' W 003°29'517.3
2017-Jun-18 00:00N 49°50' W 003°22'1417.4
2017-Jun-17 23:14N 49°56' W 003°03'417.7
2017-Jun-17 23:01N 49°58' W 002°58'917.9
2017-Jun-17 22:30N 50°00' W 002°44'918.1
2017-Jun-17 22:00N 50°03' W 002°31'918.5
2017-Jun-17 21:30N 50°07' W 002°18'918.9
2017-Jun-17 21:01N 50°12' W 002°06'1019.2
2017-Jun-17 20:30N 50°16' W 001°52'1019.4
2017-Jun-17 20:00N 50°21' W 001°39'1019.1
2017-Jun-17 19:31N 50°26' W 001°26'1019.5
2017-Jun-17 19:00N 50°30' W 001°12'918.8
2017-Jun-17 18:30N 50°35' W 000°60'714.6
2017-Jun-17 18:00N 50°42' W 000°59'815.5
2017-Jun-17 17:31N 50°46' W 001°10'611.4
2017-Jun-17 17:00N 50°48' W 001°18'4 8.3
2017-Jun-17 16:30N 50°51' W 001°21'4 0.9
2017-Jun-17 12:45N 50°54' W 001°25'0 0.0
2017-Jun-17 12:30N 50°54' W 001°25'0 0.0
2017-Jun-17 12:00N 50°54' W 001°25'0 0.0
2017-Jun-17 11:27N 50°54' W 001°25'0 0.0
2017-Jun-17 11:00N 50°54' W 001°25'0 0.0
2017-Jun-17 10:30N 50°54' W 001°25'0 0.0
2017-Jun-17 09:57N 50°54' W 001°25'0 0.0
2017-Jun-17 09:30N 50°54' W 001°25'0 0.0
2017-Jun-17 09:00N 50°54' W 001°25'0 0.0
2017-Jun-17 08:30N 50°54' W 001°25'0 0.0
2017-Jun-17 08:00N 50°54' W 001°25'0 0.0
2017-Jun-17 07:27N 50°54' W 001°25'0 0.0
2017-Jun-17 06:57N 50°54' W 001°25'0 0.0
2017-Jun-17 06:30N 50°54' W 001°25'0 0.0
2017-Jun-17 06:00N 50°54' W 001°25'0 0.0
2017-Jun-17 05:27N 50°54' W 001°25'0 0.0
2017-Jun-17 04:57N 50°54' W 001°25'0 0.0
2017-Jun-17 04:30N 50°54' W 001°25'0 0.9
2017-Jun-17 04:00N 50°54' W 001°25'4 9.0
2017-Jun-17 03:30N 50°50' W 001°19'4 8.2
2017-Jun-17 03:00N 50°47' W 001°17'714.1
2017-Jun-17 02:30N 50°45' W 001°07'713.8
2017-Jun-17 02:00N 50°41' W 000°58'714.5
2017-Jun-17 01:30N 50°34' W 000°58'815.8
2017-Jun-17 01:00N 50°28' W 001°07'816.6
2017-Jun-17 00:30N 50°22' W 001°17'816.7
2017-Jun-17 00:00N 50°17' W 001°27'816.9
2017-Jun-16 23:30N 50°12' W 001°37'917.0
2017-Jun-16 23:00N 50°08' W 001°49'1916.7
2017-Jun-16 21:52N 49°58' W 002°14'1116.4
2017-Jun-16 21:14N 49°53' W 002°29'416.8
2017-Jun-16 21:00N 49°52' W 002°34'816.6
2017-Jun-16 20:30N 49°49' W 002°46'816.4
2017-Jun-16 20:00N 49°46' W 002°58'816.5
2017-Jun-16 19:30N 49°43' W 003°09'816.7
2017-Jun-16 19:00N 49°39' W 003°21'816.6
2017-Jun-16 18:30N 49°35' W 003°32'4116.5
2017-Jun-16 16:02N 49°15' W 004°27'216.2
2017-Jun-16 15:53N 49°14' W 004°30'615.9
2017-Jun-16 15:29N 49°10' W 004°38'816.1
2017-Jun-16 15:00N 49°06' W 004°49'816.3
2017-Jun-16 14:30N 49°02' W 004°59'1615.7
2017-Jun-16 13:30N 48°54' W 005°20'815.7
2017-Jun-16 13:00N 48°50' W 005°30'3316.2
2017-Jun-16 10:58N 48°21' W 005°55'1716.7
2017-Jun-16 09:58N 48°07' W 006°08'55617.8
2017-Jun-15 02:47N 39°15' W 009°51'517.3
2017-Jun-15 02:31N 39°10' W 009°51'917.2
2017-Jun-15 02:00N 39°01' W 009°51'817.0
2017-Jun-15 01:30N 38°53' W 009°51'816.8
2017-Jun-15 01:00N 38°45' W 009°51'815.7
2017-Jun-15 00:30N 38°37' W 009°48'917.1
2017-Jun-15 00:00N 38°35' W 009°37'918.2
2017-Jun-14 23:30N 38°35' W 009°25'918.4
2017-Jun-14 23:01N 38°41' W 009°16'612.1
2017-Jun-14 22:30N 38°42' W 009°09'1 2.0
2017-Jun-14 21:59N 38°42' W 009°08'0 0.0
2017-Jun-14 21:29N 38°42' W 009°08'0 0.0
2017-Jun-14 20:59N 38°42' W 009°08'0 0.0
2017-Jun-14 20:26N 38°42' W 009°08'0 0.0
2017-Jun-14 19:59N 38°42' W 009°08'0 0.0
2017-Jun-14 19:29N 38°42' W 009°08'0 0.0
2017-Jun-14 18:59N 38°42' W 009°08'0 0.0
2017-Jun-14 18:29N 38°42' W 009°08'0 0.0
2017-Jun-14 17:59N 38°42' W 009°08'0 0.0
2017-Jun-14 17:29N 38°42' W 009°08'0 0.0
2017-Jun-14 16:56N 38°42' W 009°08'0 0.0
2017-Jun-14 16:26N 38°42' W 009°08'0 0.0
2017-Jun-14 15:59N 38°42' W 009°08'0 0.0
2017-Jun-14 15:29N 38°42' W 009°08'0 0.0
2017-Jun-14 14:38N 38°42' W 009°08'0 0.0
2017-Jun-14 13:50N 38°42' W 009°08'0 0.0
2017-Jun-14 13:29N 38°42' W 009°08'0 0.0
2017-Jun-14 12:59N 38°42' W 009°08'0 0.0
2017-Jun-14 12:26N 38°42' W 009°08'0 0.0
2017-Jun-14 11:59N 38°42' W 009°08'0 0.0
2017-Jun-14 10:41N 38°42' W 009°08'3 4.4
2017-Jun-14 10:04N 38°41' W 009°11'113.0
2017-Jun-14 10:00N 38°41' W 009°12'612.6
2017-Jun-14 09:30N 38°39' W 009°20'817.1
2017-Jun-14 09:00N 38°31' W 009°23'1020.1
2017-Jun-14 08:30N 38°21' W 009°24'917.7
2017-Jun-14 08:00N 38°13' W 009°25'2817.9
2017-Jun-14 06:28N 37°45' W 009°23'7017.1
2017-Jun-14 02:22N 36°39' W 008°51'6220.3
2017-Jun-13 23:19N 36°20' W 007°39'10418.8
2017-Jun-13 17:47N 35°59' W 005°33'618.8
2017-Jun-13 17:29N 35°60' W 005°26'918.9
2017-Jun-13 17:00N 36°04' W 005°16'  
Track history (hours):
 
Tides and Currents Weather Stations Pressure Air Temp Water Temp Dewpoint Dewpoint Depression Visibility Wind Speed Wind Dir Waves Ship Positions

Independence of the Seas

Last reported at 2017-Jun-23 16:59 UTC. Time now 2017-Jun-23 17:10 UTC.
Position N 28°08' W 015°26'.

Length 339 m; draft 8.8 m.

Type: Passenger vessel. MMSI: 309374000.

Date/timePositionNaut miles runAvg speedWind from/ knotsBaromVisibWave heightAir tempDewpointWater temp
2017-Jun-23 16:59N 28°08' W 015°26'0 0.0
2017-Jun-23 16:29N 28°08' W 015°26'0 0.0
2017-Jun-23 15:59N 28°08' W 015°26'0 0.0
2017-Jun-23 15:29N 28°08' W 015°26'0 0.0
2017-Jun-23 14:50N 28°08' W 015°26'0 0.0
2017-Jun-23 13:50N 28°08' W 015°26'0 0.0
2017-Jun-23 13:23N 28°08' W 015°26'0 0.0
2017-Jun-23 12:53N 28°08' W 015°26'0 0.0
2017-Jun-23 12:23N 28°08' W 015°26'0 0.0
2017-Jun-23 11:50N 28°08' W 015°26'0 0.0
2017-Jun-23 11:23N 28°08' W 015°26'0 0.0
2017-Jun-23 10:50N 28°08' W 015°26'0 0.0
2017-Jun-23 10:26N 28°08' W 015°26'0 0.0
2017-Jun-23 09:56N 28°08' W 015°26'0 0.0
2017-Jun-23 09:26N 28°08' W 015°26'0 0.0
2017-Jun-23 08:56N 28°08' W 015°26'0 0.0
2017-Jun-23 08:26N 28°08' W 015°26'0 0.0
2017-Jun-23 07:53N 28°08' W 015°26'1 2.6
2017-Jun-23 07:30N 28°08' W 015°25'5 9.7
2017-Jun-23 07:00N 28°06' W 015°20'611.4
2017-Jun-23 06:30N 28°05' W 015°13'611.5
2017-Jun-23 06:00N 28°04' W 015°07'611.7
2017-Jun-23 05:30N 28°03' W 015°01'611.4
2017-Jun-23 05:01N 28°02' W 014°54'611.2
2017-Jun-23 04:30N 27°59' W 014°49'611.2
2017-Jun-23 04:01N 27°57' W 014°43'611.4
2017-Jun-23 03:30N 27°54' W 014°37'611.4
2017-Jun-23 03:00N 27°52' W 014°31'611.2
2017-Jun-23 02:30N 27°49' W 014°26'611.4
2017-Jun-23 02:00N 27°47' W 014°19'611.5
2017-Jun-23 01:30N 27°49' W 014°13'611.3
2017-Jun-23 01:00N 27°50' W 014°07'611.4
2017-Jun-23 00:30N 27°52' W 014°01'611.4
2017-Jun-23 00:00N 27°53' W 013°55'611.5
2017-Jun-22 23:31N 27°56' W 013°49'611.2
2017-Jun-22 23:00N 27°60' W 013°44'3811.4
2017-Jun-22 19:40N 28°36' W 013°32'411.7
2017-Jun-22 19:22N 28°40' W 013°32'411.6
2017-Jun-22 19:01N 28°44' W 013°32'711.5
2017-Jun-22 18:24N 28°51' W 013°32'511.6
2017-Jun-22 18:00N 28°56' W 013°32'2 3.5
2017-Jun-22 17:22N 28°58' W 013°32'0 0.0
2017-Jun-22 16:55N 28°58' W 013°32'0 0.0
2017-Jun-22 16:19N 28°58' W 013°32'0 0.0
2017-Jun-22 15:49N 28°58' W 013°32'0 0.0
2017-Jun-22 15:19N 28°58' W 013°32'0 0.0
2017-Jun-22 14:55N 28°58' W 013°32'0 0.0
2017-Jun-22 13:55N 28°58' W 013°32'0 0.0
2017-Jun-22 13:28N 28°58' W 013°32'0 0.0
2017-Jun-22 12:55N 28°58' W 013°32'0 0.0
2017-Jun-22 12:25N 28°58' W 013°32'0 0.0
2017-Jun-22 11:58N 28°58' W 013°32'0 0.0
2017-Jun-22 11:28N 28°58' W 013°32'0 0.0
2017-Jun-22 10:58N 28°58' W 013°32'0 0.0
2017-Jun-22 10:25N 28°58' W 013°32'0 0.0
2017-Jun-22 09:58N 28°58' W 013°32'0 0.0
2017-Jun-22 09:28N 28°58' W 013°32'0 0.0
2017-Jun-22 08:58N 28°58' W 013°32'0 0.0
2017-Jun-22 08:16N 28°58' W 013°32'0 0.0
2017-Jun-22 07:49N 28°58' W 013°32'0 0.6
2017-Jun-22 07:30N 28°58' W 013°32'4 8.4
2017-Jun-22 07:00N 28°59' W 013°28'815.1
2017-Jun-22 06:30N 29°06' W 013°24'1914.9
2017-Jun-22 05:15N 29°23' W 013°15'514.6
2017-Jun-22 04:53N 29°28' W 013°13'614.6
2017-Jun-22 04:30N 29°34' W 013°11'714.7
2017-Jun-22 04:00N 29°41' W 013°09'915.0
2017-Jun-22 03:24N 29°49' W 013°05'615.3
2017-Jun-22 03:00N 29°55' W 013°03'814.9
2017-Jun-22 02:28N 30°02' W 012°59'715.6
2017-Jun-22 02:00N 30°09' W 012°57'815.6
2017-Jun-22 01:30N 30°17' W 012°54'815.3
2017-Jun-22 01:00N 30°24' W 012°51'50716.7
2017-Jun-20 18:38N 38°23' W 009°31'217.3
2017-Jun-20 18:30N 38°25' W 009°30'916.9
2017-Jun-20 18:00N 38°33' W 009°26'917.0
2017-Jun-20 17:30N 38°40' W 009°19'713.7
2017-Jun-20 17:00N 38°41' W 009°11'3 5.2
2017-Jun-20 16:28N 38°43' W 009°07'0 0.0
2017-Jun-20 15:58N 38°43' W 009°07'0 0.0
2017-Jun-20 15:28N 38°43' W 009°07'0 0.0
2017-Jun-20 14:58N 38°43' W 009°07'0 0.0
2017-Jun-20 13:58N 38°43' W 009°07'0 0.0
2017-Jun-20 13:28N 38°43' W 009°07'0 0.0
2017-Jun-20 12:58N 38°43' W 009°07'0 0.0
2017-Jun-20 12:28N 38°43' W 009°07'0 0.0
2017-Jun-20 11:58N 38°43' W 009°07'0 0.0
2017-Jun-20 11:28N 38°43' W 009°07'0 0.0
2017-Jun-20 10:55N 38°43' W 009°07'0 0.0
2017-Jun-20 10:28N 38°43' W 009°07'0 0.0
2017-Jun-20 09:58N 38°43' W 009°07'0 0.0
2017-Jun-20 09:28N 38°43' W 009°07'0 0.0
2017-Jun-20 08:58N 38°43' W 009°07'0 0.0
2017-Jun-20 08:28N 38°43' W 009°07'0 0.0
2017-Jun-20 07:58N 38°43' W 009°07'0 0.0
2017-Jun-20 07:28N 38°43' W 009°07'0 0.0
2017-Jun-20 07:00N 38°43' W 009°07'3 6.4
2017-Jun-20 06:30N 38°41' W 009°11'612.8
2017-Jun-20 06:01N 38°40' W 009°19'714.8
2017-Jun-20 05:30N 38°35' W 009°27'816.4
2017-Jun-20 05:01N 38°37' W 009°37'815.8
2017-Jun-20 04:30N 38°44' W 009°43'917.8
2017-Jun-20 04:00N 38°53' W 009°44'918.1
2017-Jun-20 03:30N 39°02' W 009°44'918.1
2017-Jun-20 03:00N 39°11' W 009°44'1017.7
2017-Jun-20 02:28N 39°20' W 009°44'817.0
2017-Jun-20 02:00N 39°28' W 009°45'816.7
2017-Jun-20 01:30N 39°37' W 009°45'171 8.7
2017-Jun-19 05:54N 42°25' W 009°10'4916.7
2017-Jun-19 02:58N 42°55' W 010°03'40119.0
2017-Jun-18 05:50N 48°53' W 005°47'820.6
2017-Jun-18 05:26N 48°57' W 005°36'920.9
2017-Jun-18 05:01N 49°02' W 005°24'1120.7
2017-Jun-18 04:30N 49°08' W 005°11'919.3
2017-Jun-18 04:01N 49°12' W 004°58'918.9
2017-Jun-18 03:31N 49°17' W 004°46'2618.7
2017-Jun-18 02:08N 49°31' W 004°12'318.3
2017-Jun-18 02:00N 49°32' W 004°09'918.2
2017-Jun-18 01:30N 49°36' W 003°57'918.0
2017-Jun-18 00:59N 49°41' W 003°45'1217.5
2017-Jun-18 00:16N 49°48' W 003°29'517.3
2017-Jun-18 00:00N 49°50' W 003°22'1417.4
2017-Jun-17 23:14N 49°56' W 003°03'417.7
2017-Jun-17 23:01N 49°58' W 002°58'917.9
2017-Jun-17 22:30N 50°00' W 002°44'918.1
2017-Jun-17 22:00N 50°03' W 002°31'918.5
2017-Jun-17 21:30N 50°07' W 002°18'918.9
2017-Jun-17 21:01N 50°12' W 002°06'1019.2
2017-Jun-17 20:30N 50°16' W 001°52'1019.4
2017-Jun-17 20:00N 50°21' W 001°39'1019.1
2017-Jun-17 19:31N 50°26' W 001°26'1019.5
2017-Jun-17 19:00N 50°30' W 001°12'918.8
2017-Jun-17 18:30N 50°35' W 000°60'714.6
2017-Jun-17 18:00N 50°42' W 000°59'815.5
2017-Jun-17 17:31N 50°46' W 001°10'611.4
2017-Jun-17 17:00N 50°48' W 001°18'4 8.3
2017-Jun-17 16:30N 50°51' W 001°21'4 0.9
2017-Jun-17 12:45N 50°54' W 001°25'0 0.0
2017-Jun-17 12:30N 50°54' W 001°25'0 0.0
2017-Jun-17 12:00N 50°54' W 001°25'0 0.0
2017-Jun-17 11:27N 50°54' W 001°25'0 0.0
2017-Jun-17 11:00N 50°54' W 001°25'0 0.0
2017-Jun-17 10:30N 50°54' W 001°25'0 0.0
2017-Jun-17 09:57N 50°54' W 001°25'0 0.0
2017-Jun-17 09:30N 50°54' W 001°25'0 0.0
2017-Jun-17 09:00N 50°54' W 001°25'0 0.0
2017-Jun-17 08:30N 50°54' W 001°25'0 0.0
2017-Jun-17 08:00N 50°54' W 001°25'0 0.0
2017-Jun-17 07:27N 50°54' W 001°25'0 0.0
2017-Jun-17 06:57N 50°54' W 001°25'0 0.0
2017-Jun-17 06:30N 50°54' W 001°25'0 0.0
2017-Jun-17 06:00N 50°54' W 001°25'0 0.0
2017-Jun-17 05:27N 50°54' W 001°25'0 0.0
2017-Jun-17 04:57N 50°54' W 001°25'0 0.0
2017-Jun-17 04:30N 50°54' W 001°25'0 0.9
2017-Jun-17 04:00N 50°54' W 001°25'4 9.0
2017-Jun-17 03:30N 50°50' W 001°19'4 8.2
2017-Jun-17 03:00N 50°47' W 001°17'714.1
2017-Jun-17 02:30N 50°45' W 001°07'713.8
2017-Jun-17 02:00N 50°41' W 000°58'714.5
2017-Jun-17 01:30N 50°34' W 000°58'815.8
2017-Jun-17 01:00N 50°28' W 001°07'816.6
2017-Jun-17 00:30N 50°22' W 001°17'816.7
2017-Jun-17 00:00N 50°17' W 001°27'816.9
2017-Jun-16 23:30N 50°12' W 001°37'917.0
2017-Jun-16 23:00N 50°08' W 001°49'1916.7
2017-Jun-16 21:52N 49°58' W 002°14'1116.4
2017-Jun-16 21:14N 49°53' W 002°29'416.8
2017-Jun-16 21:00N 49°52' W 002°34'816.6
2017-Jun-16 20:30N 49°49' W 002°46'816.4
2017-Jun-16 20:00N 49°46' W 002°58'816.5
2017-Jun-16 19:30N 49°43' W 003°09'816.7
2017-Jun-16 19:00N 49°39' W 003°21'816.6
2017-Jun-16 18:30N 49°35' W 003°32'4116.5
2017-Jun-16 16:02N 49°15' W 004°27'216.2
2017-Jun-16 15:53N 49°14' W 004°30'615.9
2017-Jun-16 15:29N 49°10' W 004°38'816.1
2017-Jun-16 15:00N 49°06' W 004°49'816.3
2017-Jun-16 14:30N 49°02' W 004°59'1615.7
2017-Jun-16 13:30N 48°54' W 005°20'815.7
2017-Jun-16 13:00N 48°50' W 005°30'3316.2
2017-Jun-16 10:58N 48°21' W 005°55'1716.7
2017-Jun-16 09:58N 48°07' W 006°08'55617.8
2017-Jun-15 02:47N 39°15' W 009°51'517.3
2017-Jun-15 02:31N 39°10' W 009°51'917.2
2017-Jun-15 02:00N 39°01' W 009°51'817.0
2017-Jun-15 01:30N 38°53' W 009°51'816.8
2017-Jun-15 01:00N 38°45' W 009°51'815.7
2017-Jun-15 00:30N 38°37' W 009°48'917.1
2017-Jun-15 00:00N 38°35' W 009°37'918.2
2017-Jun-14 23:30N 38°35' W 009°25'918.4
2017-Jun-14 23:01N 38°41' W 009°16'612.1
2017-Jun-14 22:30N 38°42' W 009°09'1 2.0
2017-Jun-14 21:59N 38°42' W 009°08'0 0.0
2017-Jun-14 21:29N 38°42' W 009°08'0 0.0
2017-Jun-14 20:59N 38°42' W 009°08'0 0.0
2017-Jun-14 20:26N 38°42' W 009°08'0 0.0
2017-Jun-14 19:59N 38°42' W 009°08'0 0.0
2017-Jun-14 19:29N 38°42' W 009°08'0 0.0
2017-Jun-14 18:59N 38°42' W 009°08'0 0.0
2017-Jun-14 18:29N 38°42' W 009°08'0 0.0
2017-Jun-14 17:59N 38°42' W 009°08'0 0.0
2017-Jun-14 17:29N 38°42' W 009°08'0 0.0
2017-Jun-14 16:56N 38°42' W 009°08'0 0.0
2017-Jun-14 16:26N 38°42' W 009°08'0 0.0
2017-Jun-14 15:59N 38°42' W 009°08'0 0.0
2017-Jun-14 15:29N 38°42' W 009°08'0 0.0
2017-Jun-14 14:38N 38°42' W 009°08'0 0.0
2017-Jun-14 13:50N 38°42' W 009°08'0 0.0
2017-Jun-14 13:29N 38°42' W 009°08'0 0.0
2017-Jun-14 12:59N 38°42' W 009°08'0 0.0
2017-Jun-14 12:26N 38°42' W 009°08'0 0.0
2017-Jun-14 11:59N 38°42' W 009°08'0 0.0
2017-Jun-14 10:41N 38°42' W 009°08'3 4.4
2017-Jun-14 10:04N 38°41' W 009°11'113.0
2017-Jun-14 10:00N 38°41' W 009°12'612.6
2017-Jun-14 09:30N 38°39' W 009°20'817.1
2017-Jun-14 09:00N 38°31' W 009°23'1020.1
2017-Jun-14 08:30N 38°21' W 009°24'917.7
2017-Jun-14 08:00N 38°13' W 009°25'2817.9
2017-Jun-14 06:28N 37°45' W 009°23'7017.1
2017-Jun-14 02:22N 36°39' W 008°51'6220.3
2017-Jun-13 23:19N 36°20' W 007°39'10418.8
2017-Jun-13 17:47N 35°59' W 005°33'618.8
2017-Jun-13 17:29N 35°60' W 005°26'918.9
2017-Jun-13 17:00N 36°04' W 005°16'  

Dump ship's entire track history